sensor_id;sensor_type;location;lat;lon;timestamp;pressure;altitude;pressure_sealevel;temperature;humidity
70445;BME280;57902;49.638;11.070;2023-02-23T00:01:49;97891.34;;;8.20;100.00
70445;BME280;57902;49.638;11.070;2023-02-23T00:04:16;97893.88;;;8.22;100.00
70445;BME280;57902;49.638;11.070;2023-02-23T00:06:44;97898.16;;;8.23;100.00
70445;BME280;57902;49.638;11.070;2023-02-23T00:09:10;97894.75;;;8.22;100.00
70445;BME280;57902;49.638;11.070;2023-02-23T00:11:52;97897.31;;;8.22;100.00
70445;BME280;57902;49.638;11.070;2023-02-23T00:14:20;97894.78;;;8.21;100.00
70445;BME280;57902;49.638;11.070;2023-02-23T00:16:49;97896.50;;;8.20;100.00
70445;BME280;57902;49.638;11.070;2023-02-23T00:19:17;97891.41;;;8.19;100.00
70445;BME280;57902;49.638;11.070;2023-02-23T00:21:44;97894.81;;;8.19;100.00
70445;BME280;57902;49.638;11.070;2023-02-23T00:24:12;97894.06;;;8.16;100.00
70445;BME280;57902;49.638;11.070;2023-02-23T00:26:40;97893.31;;;8.12;100.00
70445;BME280;57902;49.638;11.070;2023-02-23T00:29:16;97890.78;;;8.11;100.00
70445;BME280;57902;49.638;11.070;2023-02-23T00:31:44;97890.91;;;8.06;100.00
70445;BME280;57902;49.638;11.070;2023-02-23T00:34:13;97891.78;;;8.05;100.00
70445;BME280;57902;49.638;11.070;2023-02-23T00:36:40;97890.91;;;8.06;100.00
70445;BME280;57902;49.638;11.070;2023-02-23T00:39:10;97889.22;;;8.05;100.00
70445;BME280;57902;49.638;11.070;2023-02-23T00:41:47;97890.16;;;8.01;100.00
70445;BME280;57902;49.638;11.070;2023-02-23T00:44:14;97891.94;;;7.99;100.00
70445;BME280;57902;49.638;11.070;2023-02-23T00:46:42;97887.75;;;7.95;100.00
70445;BME280;57902;49.638;11.070;2023-02-23T00:49:11;97887.75;;;7.95;100.00
70445;BME280;57902;49.638;11.070;2023-02-23T00:51:38;97885.09;;;7.98;100.00
70445;BME280;57902;49.638;11.070;2023-02-23T00:54:05;97882.66;;;7.93;100.00
70445;BME280;57902;49.638;11.070;2023-02-23T00:56:32;97885.41;;;7.85;100.00
70445;BME280;57902;49.638;11.070;2023-02-23T00:58:59;97881.22;;;7.83;100.00
70445;BME280;57902;49.638;11.070;2023-02-23T01:01:26;97876.91;;;7.83;100.00
70445;BME280;57902;49.638;11.070;2023-02-23T01:03:52;97881.31;;;7.78;100.00
70445;BME280;57902;49.638;11.070;2023-02-23T01:06:19;97883.09;;;7.75;100.00
70445;BME280;57902;49.638;11.070;2023-02-23T01:08:48;97884.06;;;7.70;100.00
70445;BME280;57902;49.638;11.070;2023-02-23T01:11:18;97885.78;;;7.70;100.00
70445;BME280;57902;49.638;11.070;2023-02-23T01:13:51;97882.44;;;7.68;100.00
70445;BME280;57902;49.638;11.070;2023-02-23T01:16:20;97886.50;;;7.77;100.00
70445;BME280;57902;49.638;11.070;2023-02-23T01:18:47;97892.69;;;7.68;100.00
70445;BME280;57902;49.638;11.070;2023-02-23T01:21:20;97889.31;;;7.66;100.00
70445;BME280;57902;49.638;11.070;2023-02-23T01:23:49;97887.69;;;7.62;100.00
70445;BME280;57902;49.638;11.070;2023-02-23T01:28:53;97886.94;;;7.58;100.00
70445;BME280;57902;49.638;11.070;2023-02-23T01:31:21;97897.41;;;7.49;100.00
70445;BME280;57902;49.638;11.070;2023-02-23T01:33:53;97899.25;;;7.44;100.00
70445;BME280;57902;49.638;11.070;2023-02-23T01:36:20;97894.19;;;7.41;100.00
70445;BME280;57902;49.638;11.070;2023-02-23T01:38:48;97894.97;;;7.43;100.00
70445;BME280;57902;49.638;11.070;2023-02-23T01:41:15;97895.75;;;7.46;100.00
70445;BME280;57902;49.638;11.070;2023-02-23T01:46:20;97891.34;;;7.51;100.00
70445;BME280;57902;49.638;11.070;2023-02-23T01:48:48;97888.78;;;7.51;100.00
70445;BME280;57902;49.638;11.070;2023-02-23T01:51:18;97888.75;;;7.53;100.00
70445;BME280;57902;49.638;11.070;2023-02-23T01:53:53;97888.66;;;7.58;100.00
70445;BME280;57902;49.638;11.070;2023-02-23T01:56:25;97887.81;;;7.57;100.00
70445;BME280;57902;49.638;11.070;2023-02-23T01:58:54;97886.94;;;7.58;100.00
70445;BME280;57902;49.638;11.070;2023-02-23T02:01:22;97892.91;;;7.59;100.00
70445;BME280;57902;49.638;11.070;2023-02-23T02:03:53;97886.03;;;7.61;100.00
70445;BME280;57902;49.638;11.070;2023-02-23T02:06:24;97882.59;;;7.60;100.00
70445;BME280;57902;49.638;11.070;2023-02-23T02:08:57;97881.72;;;7.61;100.00
70445;BME280;57902;49.638;11.070;2023-02-23T02:11:25;97879.16;;;7.61;100.00
70445;BME280;57902;49.638;11.070;2023-02-23T02:13:58;97882.63;;;7.59;100.00
70445;BME280;57902;49.638;11.070;2023-02-23T02:42:32;97865.09;;;7.04;100.00
70445;BME280;57902;49.638;11.070;2023-02-23T02:45:06;97876.16;;;7.06;100.00
70445;BME280;57902;49.638;11.070;2023-02-23T02:52:53;97874.75;;;6.91;100.00
70445;BME280;57902;49.638;11.070;2023-02-23T02:55:25;97868.88;;;6.88;100.00
70445;BME280;57902;49.638;11.070;2023-02-23T02:57:56;97877.50;;;6.83;100.00
70445;BME280;57902;49.638;11.070;2023-02-23T03:00:31;97876.66;;;6.83;100.00
70445;BME280;57902;49.638;11.070;2023-02-23T03:03:30;97869.94;;;6.77;100.00
70445;BME280;57902;49.638;11.070;2023-02-23T03:06:17;97876.81;;;6.74;100.00
70445;BME280;57902;49.638;11.070;2023-02-23T03:09:12;97876.84;;;6.72;100.00
70445;BME280;57902;49.638;11.070;2023-02-23T03:12:10;97886.31;;;6.70;100.00
70445;BME280;57902;49.638;11.070;2023-02-23T03:21:48;97882.22;;;6.61;100.00
70445;BME280;57902;49.638;11.070;2023-02-23T03:27:53;97889.88;;;6.63;100.00
70445;BME280;57902;49.638;11.070;2023-02-23T03:31:03;97883.03;;;6.62;100.00
70445;BME280;57902;49.638;11.070;2023-02-23T03:37:25;97886.59;;;6.55;100.00
70445;BME280;57902;49.638;11.070;2023-02-23T03:40:27;97882.34;;;6.55;100.00
70445;BME280;57902;49.638;11.070;2023-02-23T03:43:24;97881.50;;;6.53;100.00
70445;BME280;57902;49.638;11.070;2023-02-23T03:46:15;97885.75;;;6.54;100.00
70445;BME280;57902;49.638;11.070;2023-02-23T03:49:06;97883.31;;;6.50;100.00
70445;BME280;57902;49.638;11.070;2023-02-23T03:52:05;97885.97;;;6.45;100.00
70445;BME280;57902;49.638;11.070;2023-02-23T03:55:00;97892.88;;;6.40;100.00
70445;BME280;57902;49.638;11.070;2023-02-23T03:57:53;97886.97;;;6.36;100.00
70445;BME280;57902;49.638;11.070;2023-02-23T04:00:46;97887.09;;;6.30;100.00
70445;BME280;57902;49.638;11.070;2023-02-23T04:03:35;97889.72;;;6.25;100.00
70445;BME280;57902;49.638;11.070;2023-02-23T04:06:23;97888.91;;;6.23;100.00
70445;BME280;57902;49.638;11.070;2023-02-23T04:09:10;97892.44;;;6.18;100.00
70445;BME280;57902;49.638;11.070;2023-02-23T04:14:53;97895.78;;;6.21;100.00
70445;BME280;57902;49.638;11.070;2023-02-23T04:17:24;97888.94;;;6.22;100.00
70445;BME280;57902;49.638;11.070;2023-02-23T04:19:53;97889.88;;;6.18;100.00
70445;BME280;57902;49.638;11.070;2023-02-23T04:22:21;97890.72;;;6.18;100.00
70445;BME280;57902;49.638;11.070;2023-02-23T04:24:48;97893.28;;;6.18;100.00
70445;BME280;57902;49.638;11.070;2023-02-23T04:27:15;97895.00;;;6.18;100.00
70445;BME280;57902;49.638;11.070;2023-02-23T04:29:42;97892.44;;;6.18;100.00
70445;BME280;57902;49.638;11.070;2023-02-23T04:32:14;97893.31;;;6.15;100.00
70445;BME280;57902;49.638;11.070;2023-02-23T04:34:42;97893.44;;;6.09;100.00
70445;BME280;57902;49.638;11.070;2023-02-23T04:37:09;97900.31;;;6.07;100.00
70445;BME280;57902;49.638;11.070;2023-02-23T04:39:36;97896.13;;;6.01;100.00
70445;BME280;57902;49.638;11.070;2023-02-23T04:42:02;97900.41;;;6.01;100.00
70445;BME280;57902;49.638;11.070;2023-02-23T04:44:29;97894.50;;;5.97;100.00
70445;BME280;57902;49.638;11.070;2023-02-23T04:46:56;97895.31;;;5.96;100.00
70445;BME280;57902;49.638;11.070;2023-02-23T04:49:23;97894.50;;;5.97;100.00
70445;BME280;57902;49.638;11.070;2023-02-23T04:51:49;97902.16;;;5.99;100.00
70445;BME280;57902;49.638;11.070;2023-02-23T04:54:15;97899.63;;;5.95;100.00
70445;BME280;57902;49.638;11.070;2023-02-23T04:56:42;97896.22;;;5.95;100.00
70445;BME280;57902;49.638;11.070;2023-02-23T04:59:09;97899.69;;;5.91;100.00
70445;BME280;57902;49.638;11.070;2023-02-23T05:01:35;97895.50;;;5.87;100.00
70445;BME280;57902;49.638;11.070;2023-02-23T05:04:02;97904.91;;;5.85;100.00
70445;BME280;57902;49.638;11.070;2023-02-23T05:06:29;97898.97;;;5.83;100.00
70445;BME280;57902;49.638;11.070;2023-02-23T05:08:56;97899.88;;;5.82;100.00
70445;BME280;57902;49.638;11.070;2023-02-23T05:11:23;97898.13;;;5.82;100.00
70445;BME280;57902;49.638;11.070;2023-02-23T05:13:50;97905.03;;;5.78;100.00
70445;BME280;57902;49.638;11.070;2023-02-23T05:16:17;97903.28;;;5.81;100.00
70445;BME280;57902;49.638;11.070;2023-02-23T05:18:44;97903.31;;;5.79;100.00
70445;BME280;57902;49.638;11.070;2023-02-23T05:21:10;97907.63;;;5.77;100.00
70445;BME280;57902;49.638;11.070;2023-02-23T05:23:37;97899.94;;;5.75;100.00
70445;BME280;57902;49.638;11.070;2023-02-23T05:26:11;97910.13;;;5.80;100.00
70445;BME280;57902;49.638;11.070;2023-02-23T05:28:39;97909.28;;;5.78;100.00
70445;BME280;57902;49.638;11.070;2023-02-23T05:31:07;97906.66;;;5.81;100.00
70445;BME280;57902;49.638;11.070;2023-02-23T05:33:35;97904.94;;;5.83;100.00
70445;BME280;57902;49.638;11.070;2023-02-23T05:36:12;97905.88;;;5.79;100.00
70445;BME280;57902;49.638;11.070;2023-02-23T05:38:39;97905.00;;;5.80;100.00
70445;BME280;57902;49.638;11.070;2023-02-23T05:41:10;97906.69;;;5.79;100.00
70445;BME280;57902;49.638;11.070;2023-02-23T05:43:37;97904.09;;;5.83;100.00
70445;BME280;57902;49.638;11.070;2023-02-23T05:46:09;97912.53;;;5.88;100.00
70445;BME280;57902;49.638;11.070;2023-02-23T05:48:36;97908.13;;;5.96;100.00
70445;BME280;57902;49.638;11.070;2023-02-23T05:51:05;97910.69;;;5.99;100.00
70445;BME280;57902;49.638;11.070;2023-02-23T05:53:32;97902.97;;;6.01;100.00
70445;BME280;57902;49.638;11.070;2023-02-23T05:56:00;97904.69;;;6.00;100.00
70445;BME280;57902;49.638;11.070;2023-02-23T05:58:27;97913.25;;;5.99;100.00
70445;BME280;57902;49.638;11.070;2023-02-23T06:00:54;97910.66;;;6.01;100.00
70445;BME280;57902;49.638;11.070;2023-02-23T06:03:20;97911.44;;;6.04;100.00
70445;BME280;57902;49.638;11.070;2023-02-23T06:05:49;97921.66;;;6.04;100.00
70445;BME280;57902;49.638;11.070;2023-02-23T06:08:16;97919.09;;;6.06;100.00
70445;BME280;57902;49.638;11.070;2023-02-23T06:10:43;97919.84;;;6.12;100.00
70445;BME280;57902;49.638;11.070;2023-02-23T06:13:09;97924.94;;;6.12;100.00
70445;BME280;57902;49.638;11.070;2023-02-23T06:15:36;97919.78;;;6.16;100.00
70445;BME280;57902;49.638;11.070;2023-02-23T06:18:03;97923.19;;;6.15;100.00
70445;BME280;57902;49.638;11.070;2023-02-23T06:20:30;97923.09;;;6.21;100.00
70445;BME280;57902;49.638;11.070;2023-02-23T06:22:56;97921.38;;;6.21;100.00
70445;BME280;57902;49.638;11.070;2023-02-23T06:25:23;97931.50;;;6.27;100.00
70445;BME280;57902;49.638;11.070;2023-02-23T06:27:49;97936.66;;;6.26;100.00
70445;BME280;57902;49.638;11.070;2023-02-23T06:30:16;97940.06;;;6.26;100.00
70445;BME280;57902;49.638;11.070;2023-02-23T06:32:42;97943.38;;;6.32;100.00
70445;BME280;57902;49.638;11.070;2023-02-23T06:35:09;97938.28;;;6.32;100.00
70445;BME280;57902;49.638;11.070;2023-02-23T06:37:35;97948.47;;;6.33;100.00
70445;BME280;57902;49.638;11.070;2023-02-23T06:40:03;97942.53;;;6.31;100.00
70445;BME280;57902;49.638;11.070;2023-02-23T06:42:30;97954.47;;;6.32;100.00
70445;BME280;57902;49.638;11.070;2023-02-23T06:44:56;97955.25;;;6.34;100.00
70445;BME280;57902;49.638;11.070;2023-02-23T06:47:22;97956.91;;;6.38;100.00
70445;BME280;57902;49.638;11.070;2023-02-23T06:49:49;97956.91;;;6.38;100.00
70445;BME280;57902;49.638;11.070;2023-02-23T06:52:15;97952.56;;;6.43;100.00
70445;BME280;57902;49.638;11.070;2023-02-23T06:54:43;97958.53;;;6.42;100.00
70445;BME280;57902;49.638;11.070;2023-02-23T06:57:10;97961.00;;;6.47;100.00
70445;BME280;57902;49.638;11.070;2023-02-23T06:59:36;97967.84;;;6.48;100.00
70445;BME280;57902;49.638;11.070;2023-02-23T07:02:04;97972.06;;;6.51;100.00
70445;BME280;57902;49.638;11.070;2023-02-23T07:04:31;97967.69;;;6.56;100.00
70445;BME280;57902;49.638;11.070;2023-02-23T07:07:00;97966.81;;;6.57;100.00
70445;BME280;57902;49.638;11.070;2023-02-23T07:09:27;97974.44;;;6.60;100.00
70445;BME280;57902;49.638;11.070;2023-02-23T07:11:55;97969.25;;;6.63;100.00
70445;BME280;57902;49.638;11.070;2023-02-23T07:14:22;97979.44;;;6.66;100.00
70445;BME280;57902;49.638;11.070;2023-02-23T07:16:52;97976.78;;;6.71;100.00
70445;BME280;57902;49.638;11.070;2023-02-23T07:19:19;97978.44;;;6.75;100.00
70445;BME280;57902;49.638;11.070;2023-02-23T07:21:45;97976.56;;;6.83;100.00
70445;BME280;57902;49.638;11.070;2023-02-23T07:24:12;97984.22;;;6.85;100.00
70445;BME280;57902;49.638;11.070;2023-02-23T07:26:38;97976.47;;;6.88;100.00
70445;BME280;57902;49.638;11.070;2023-02-23T07:29:06;97974.69;;;6.91;100.00
70445;BME280;57902;49.638;11.070;2023-02-23T07:31:32;97978.00;;;6.98;100.00
70445;BME280;57902;49.638;11.070;2023-02-23T07:33:59;97981.25;;;7.06;100.00
70445;BME280;57902;49.638;11.070;2023-02-23T07:36:25;97975.13;;;7.12;100.00
70445;BME280;57902;49.638;11.070;2023-02-23T07:38:52;97986.13;;;7.18;100.00
70445;BME280;57902;49.638;11.070;2023-02-23T07:41:19;97985.91;;;7.28;100.00
70445;BME280;57902;49.638;11.070;2023-02-23T07:43:49;97978.91;;;7.36;100.00
70445;BME280;57902;49.638;11.070;2023-02-23T07:46:15;97976.31;;;7.38;100.00
70445;BME280;57902;49.638;11.070;2023-02-23T07:48:43;97988.19;;;7.42;100.00
70445;BME280;57902;49.638;11.070;2023-02-23T07:51:14;97987.16;;;7.50;100.00
70445;BME280;57902;49.638;11.070;2023-02-23T07:53:44;97988.78;;;7.53;100.00
70445;BME280;57902;49.638;11.070;2023-02-23T07:56:11;97989.53;;;7.58;100.00
70445;BME280;57902;49.638;11.070;2023-02-23T07:58:40;97988.56;;;7.64;100.00
70445;BME280;57902;49.638;11.070;2023-02-23T08:01:07;97991.03;;;7.68;100.00
70445;BME280;57902;49.638;11.070;2023-02-23T08:03:34;97982.38;;;7.73;100.00
70445;BME280;57902;49.638;11.070;2023-02-23T08:06:00;97986.50;;;7.80;100.00
70445;BME280;57902;49.638;11.070;2023-02-23T08:08:27;97987.25;;;7.83;100.00
70445;BME280;57902;49.638;11.070;2023-02-23T08:11:01;97987.97;;;7.90;100.00
70445;BME280;57902;49.638;11.070;2023-02-23T08:13:28;97986.97;;;7.96;100.00
70445;BME280;57902;49.638;11.070;2023-02-23T08:15:55;97987.75;;;7.99;100.00
70445;BME280;57902;49.638;11.070;2023-02-23T08:18:22;97990.31;;;7.99;100.00
70445;BME280;57902;49.638;11.070;2023-02-23T08:20:49;97994.38;;;8.08;100.00
70445;BME280;57902;49.638;11.070;2023-02-23T08:23:15;97998.50;;;8.15;100.00
70445;BME280;57902;49.638;11.070;2023-02-23T08:25:43;97997.56;;;8.18;100.00
70445;BME280;57902;49.638;11.070;2023-02-23T08:28:09;97994.97;;;8.19;100.00
70445;BME280;57902;49.638;11.070;2023-02-23T08:30:36;97999.00;;;8.30;100.00
70445;BME280;57902;49.638;11.070;2023-02-23T08:33:03;97997.03;;;8.39;100.00
70445;BME280;57902;49.638;11.070;2023-02-23T08:35:30;97991.66;;;8.50;100.00
70445;BME280;57902;49.638;11.070;2023-02-23T08:37:57;97998.31;;;8.57;100.00
70445;BME280;57902;49.638;11.070;2023-02-23T08:40:23;97993.03;;;8.64;100.00
70445;BME280;57902;49.638;11.070;2023-02-23T08:42:52;97998.91;;;8.67;100.00
70445;BME280;57902;49.638;11.070;2023-02-23T08:45:19;98000.47;;;8.73;100.00
70445;BME280;57902;49.638;11.070;2023-02-23T08:47:45;98002.00;;;8.80;100.00
70445;BME280;57902;49.638;11.070;2023-02-23T08:50:12;97995.91;;;8.84;100.00
70445;BME280;57902;49.638;11.070;2023-02-23T08:52:39;97994.16;;;8.85;100.00
70445;BME280;57902;49.638;11.070;2023-02-23T08:55:06;98004.19;;;8.94;100.00
70445;BME280;57902;49.638;11.070;2023-02-23T08:57:34;98004.00;;;9.02;100.00
70445;BME280;57902;49.638;11.070;2023-02-23T09:00:02;98005.69;;;9.01;100.00
70445;BME280;57902;49.638;11.070;2023-02-23T09:02:37;98004.66;;;9.08;100.00
70445;BME280;57902;49.638;11.070;2023-02-23T09:05:03;98004.41;;;9.18;100.00
70445;BME280;57902;49.638;11.070;2023-02-23T09:07:30;98008.59;;;9.20;100.00
70445;BME280;57902;49.638;11.070;2023-02-23T09:09:57;98006.06;;;9.19;100.00
70445;BME280;57902;49.638;11.070;2023-02-23T09:12:24;98009.56;;;9.18;100.00
70445;BME280;57902;49.638;11.070;2023-02-23T09:14:50;98016.06;;;9.30;100.00
70445;BME280;57902;49.638;11.070;2023-02-23T09:17:19;98012.91;;;9.20;100.00
70445;BME280;57902;49.638;11.070;2023-02-23T09:19:46;98012.81;;;9.23;100.00
70445;BME280;57902;49.638;11.070;2023-02-23T09:22:12;98009.50;;;9.19;100.00
70445;BME280;57902;49.638;11.070;2023-02-23T09:24:39;98007.06;;;9.13;100.00
70445;BME280;57902;49.638;11.070;2023-02-23T09:27:05;98013.19;;;9.10;100.00
70445;BME280;57902;49.638;11.070;2023-02-23T09:29:33;98007.84;;;9.17;100.00
70445;BME280;57902;49.638;11.070;2023-02-23T09:31:59;98012.94;;;9.18;100.00
70445;BME280;57902;49.638;11.070;2023-02-23T09:34:26;98013.66;;;9.23;100.00
70445;BME280;57902;49.638;11.070;2023-02-23T09:36:56;98011.88;;;9.25;100.00
70445;BME280;57902;49.638;11.070;2023-02-23T09:39:22;98005.09;;;9.23;100.00
70445;BME280;57902;49.638;11.070;2023-02-23T09:45:04;98011.63;;;9.35;100.00
70445;BME280;57902;49.638;11.070;2023-02-23T09:50:23;98011.88;;;9.25;100.00
70445;BME280;57902;49.638;11.070;2023-02-23T09:52:55;98014.56;;;9.22;100.00
70445;BME280;57902;49.638;11.070;2023-02-23T09:55:25;98020.94;;;9.09;100.00
70445;BME280;57902;49.638;11.070;2023-02-23T09:57:52;98013.31;;;9.06;100.00
70445;BME280;57902;49.638;11.070;2023-02-23T10:00:23;98011.09;;;8.92;100.00
70445;BME280;57902;49.638;11.070;2023-02-23T10:05:31;98016.47;;;8.84;100.00
70445;BME280;57902;49.638;11.070;2023-02-23T10:08:13;98018.53;;;8.70;100.00
70445;BME280;57902;49.638;11.070;2023-02-23T10:10:52;98016.94;;;8.66;100.00
70445;BME280;57902;49.638;11.070;2023-02-23T10:13:42;98012.72;;;8.63;100.00
70445;BME280;57902;49.638;11.070;2023-02-23T10:16:20;98013.66;;;8.61;100.00
70445;BME280;57902;49.638;11.070;2023-02-23T10:18:50;98017.19;;;8.56;100.00
70445;BME280;57902;49.638;11.070;2023-02-23T10:21:38;98022.19;;;8.61;100.00
70445;BME280;57902;49.638;11.070;2023-02-23T10:24:13;98019.75;;;8.56;100.00
70445;BME280;57902;49.638;11.070;2023-02-23T10:27:03;98009.50;;;8.55;100.00
70445;BME280;57902;49.638;11.070;2023-02-23T10:29:39;98017.78;;;8.66;100.00
70445;BME280;57902;49.638;11.070;2023-02-23T10:34:47;98025.28;;;8.74;100.00
70445;BME280;57902;49.638;11.070;2023-02-23T10:37:16;98025.97;;;8.81;100.00
70445;BME280;57902;49.638;11.070;2023-02-23T10:39:45;98026.75;;;8.84;100.00
70445;BME280;57902;49.638;11.070;2023-02-23T10:42:20;98035.25;;;8.86;100.00
70445;BME280;57902;49.638;11.070;2023-02-23T10:44:48;98018.78;;;8.93;100.00
70445;BME280;57902;49.638;11.070;2023-02-23T10:47:21;98022.13;;;8.97;100.00
70445;BME280;57902;49.638;11.070;2023-02-23T10:49:54;98023.59;;;9.04;100.00
70445;BME280;57902;49.638;11.070;2023-02-23T10:52:28;98024.44;;;9.06;100.00
70445;BME280;57902;49.638;11.070;2023-02-23T10:54:57;98028.50;;;9.14;100.00
70445;BME280;57902;49.638;11.070;2023-02-23T10:57:33;98024.13;;;9.17;100.00
70445;BME280;57902;49.638;11.070;2023-02-23T11:02:36;98023.19;;;9.20;100.00
70445;BME280;57902;49.638;11.070;2023-02-23T11:05:04;98022.09;;;9.28;100.00
70445;BME280;57902;49.638;11.070;2023-02-23T11:07:32;98025.59;;;9.26;100.00
70445;BME280;57902;49.638;11.070;2023-02-23T11:10:22;98023.78;;;9.30;100.00
70445;BME280;57902;49.638;11.070;2023-02-23T11:12:49;98025.63;;;9.24;100.00
70445;BME280;57902;49.638;11.070;2023-02-23T11:18:18;98023.06;;;9.24;100.00
70445;BME280;57902;49.638;11.070;2023-02-23T11:20:47;98016.94;;;9.28;100.00
70445;BME280;57902;49.638;11.070;2023-02-23T11:23:36;98014.28;;;9.32;100.00
70445;BME280;57902;49.638;11.070;2023-02-23T11:28:55;98005.41;;;9.42;100.00
70445;BME280;57902;49.638;11.070;2023-02-23T11:31:33;98011.34;;;9.44;100.00
70445;BME280;57902;49.638;11.070;2023-02-23T11:34:04;98007.78;;;9.48;100.00
70445;BME280;57902;49.638;11.070;2023-02-23T11:36:34;98005.94;;;9.53;100.00
70445;BME280;57902;49.638;11.070;2023-02-23T11:41:31;98002.16;;;9.65;100.00
70445;BME280;57902;49.638;11.070;2023-02-23T11:44:02;97994.13;;;9.74;100.00
70445;BME280;57902;49.638;11.070;2023-02-23T11:46:35;97987.75;;;9.86;100.00
70445;BME280;57902;49.638;11.070;2023-02-23T11:49:08;97988.63;;;9.87;100.00
70445;BME280;57902;49.638;11.070;2023-02-23T11:51:46;97990.97;;;9.94;100.00
70445;BME280;57902;49.638;11.070;2023-02-23T11:54:26;97988.47;;;9.91;100.00
70445;BME280;57902;49.638;11.070;2023-02-23T11:56:54;97991.88;;;9.92;100.00
70445;BME280;57902;49.638;11.070;2023-02-23T11:59:29;97989.25;;;9.93;100.00
70445;BME280;57902;49.638;11.070;2023-02-23T12:02:01;97990.84;;;9.97;100.00
70445;BME280;57902;49.638;11.070;2023-02-23T12:04:33;97987.75;;;9.86;100.00
70445;BME280;57902;49.638;11.070;2023-02-23T12:10:17;97985.25;;;9.85;100.00
70445;BME280;57902;49.638;11.070;2023-02-23T12:18:33;97991.81;;;9.67;100.00
70445;BME280;57902;49.638;11.070;2023-02-23T12:21:57;97991.03;;;9.63;100.00
70445;BME280;57902;49.638;11.070;2023-02-23T12:24:18;97996.97;;;9.67;100.00
70445;BME280;57902;49.638;11.070;2023-02-23T12:26:59;97986.84;;;9.60;100.00
70445;BME280;57902;49.638;11.070;2023-02-23T12:29:43;97990.41;;;9.56;100.00
70445;BME280;57902;49.638;11.070;2023-02-23T12:32:18;97981.72;;;9.60;100.00
70445;BME280;57902;49.638;11.070;2023-02-23T12:34:54;97982.50;;;9.62;100.00
70445;BME280;57902;49.638;11.070;2023-02-23T12:39:56;97974.56;;;9.69;100.00
70445;BME280;57902;49.638;11.070;2023-02-23T12:42:42;97969.16;;;9.78;100.00
70445;BME280;57902;49.638;11.070;2023-02-23T12:45:41;97968.88;;;9.87;100.00
70445;BME280;57902;49.638;11.070;2023-02-23T12:48:45;97967.84;;;9.93;100.00
70445;BME280;57902;49.638;11.070;2023-02-23T12:52:01;97965.09;;;9.97;100.00
70445;BME280;57902;49.638;11.070;2023-02-23T12:54:25;97958.16;;;9.99;100.00
70445;BME280;57902;49.638;11.070;2023-02-23T12:57:13;97955.25;;;10.10;100.00
70445;BME280;57902;49.638;11.070;2023-02-23T13:00:05;97949.28;;;10.08;100.00
70445;BME280;57902;49.638;11.070;2023-02-23T13:02:40;97946.56;;;10.13;100.00
70445;BME280;57902;49.638;11.070;2023-02-23T13:10:55;97942.06;;;10.20;100.00
70445;BME280;57902;49.638;11.070;2023-02-23T13:13:37;97942.84;;;10.22;100.00
70445;BME280;57902;49.638;11.070;2023-02-23T13:19:23;97942.00;;;10.21;100.00
70445;BME280;57902;49.638;11.070;2023-02-23T13:22:24;97936.75;;;10.24;100.00
70445;BME280;57902;49.638;11.070;2023-02-23T13:24:53;97942.75;;;10.25;100.00
70445;BME280;57902;49.638;11.070;2023-02-23T13:27:28;97939.38;;;10.23;100.00
70445;BME280;57902;49.638;11.070;2023-02-23T13:29:57;97942.09;;;10.18;100.00
70445;BME280;57902;49.638;11.070;2023-02-23T13:32:27;97936.13;;;10.18;100.00
70445;BME280;57902;49.638;11.070;2023-02-23T13:35:02;97934.53;;;10.13;100.00
70445;BME280;57902;49.638;11.070;2023-02-23T13:37:35;97936.41;;;10.08;100.00
70445;BME280;57902;49.638;11.070;2023-02-23T13:40:23;97934.69;;;10.09;100.00
70445;BME280;57902;49.638;11.070;2023-02-23T13:43:08;97937.06;;;10.15;100.00
70445;BME280;57902;49.638;11.070;2023-02-23T13:48:56;97934.00;;;10.04;100.00
70445;BME280;57902;49.638;11.070;2023-02-23T13:51:32;97932.19;;;10.07;100.00
70445;BME280;57902;49.638;11.070;2023-02-23T13:54:23;97927.06;;;10.06;100.00
70445;BME280;57902;49.638;11.070;2023-02-23T13:56:54;97922.88;;;10.03;100.00
70445;BME280;57902;49.638;11.070;2023-02-23T13:59:24;97934.00;;;10.04;100.00
70445;BME280;57902;49.638;11.070;2023-02-23T14:01:52;97931.41;;;10.04;100.00
70445;BME280;57902;49.638;11.070;2023-02-23T14:04:20;97933.16;;;10.03;100.00
70445;BME280;57902;49.638;11.070;2023-02-23T14:07:30;97934.81;;;10.04;100.00
70445;BME280;57902;49.638;11.070;2023-02-23T14:10:04;97928.53;;;10.13;100.00
70445;BME280;57902;49.638;11.070;2023-02-23T14:12:40;97931.84;;;10.16;100.00
70445;BME280;57902;49.638;11.070;2023-02-23T14:15:27;97932.44;;;10.25;100.00
70445;BME280;57902;49.638;11.070;2023-02-23T14:17:58;97931.59;;;10.24;100.00
70445;BME280;57902;49.638;11.070;2023-02-23T14:23:28;97927.13;;;10.29;100.00
70445;BME280;57902;49.638;11.070;2023-02-23T14:31:29;97918.16;;;10.16;100.00
70445;BME280;57902;49.638;11.070;2023-02-23T14:33:58;97917.41;;;10.12;100.00
70445;BME280;57902;49.638;11.070;2023-02-23T14:41:30;97920.50;;;10.22;100.00
70445;BME280;57902;49.638;11.070;2023-02-23T14:44:18;97920.72;;;10.16;100.00
70445;BME280;57902;49.638;11.070;2023-02-23T14:47:17;97913.22;;;10.08;100.00
70445;BME280;57902;49.638;11.070;2023-02-23T14:49:57;97912.19;;;10.14;100.00
70445;BME280;57902;49.638;11.070;2023-02-23T14:52:34;97906.22;;;10.13;100.00
70445;BME280;57902;49.638;11.070;2023-02-23T14:55:29;97913.00;;;10.16;100.00
70445;BME280;57902;49.638;11.070;2023-02-23T14:57:56;97908.03;;;10.10;100.00
70445;BME280;57902;49.638;11.070;2023-02-23T15:00:28;97909.94;;;10.05;100.00
70445;BME280;57902;49.638;11.070;2023-02-23T15:03:06;97903.09;;;10.04;100.00
70445;BME280;57902;49.638;11.070;2023-02-23T15:05:43;97909.81;;;10.08;100.00
70445;BME280;57902;49.638;11.070;2023-02-23T15:08:19;97909.72;;;10.11;100.00